Time;durP1;ratioP1;P1;durP2;ratioP2;P2;SDS_P1;SDS_P2;PMS_P1;PMS_P2;Temp;Humidity;BMP_temperature;BMP_pressure;BME280_temperature;BME280_humidity;BME280_pressure;Samples;Min_cycle;Max_cycle;Signal;HPM_P1;HPM_P2
2023/01/22 00:01:32;;;;;;;48.97;30.40;;;;;;;-3.34;100.00;103172.53;5052723;28;20112;-72
2023/01/22 00:03:58;;;;;;;51.63;30.85;;;;;;;-3.34;100.00;103177.69;5052626;28;20112;-72
2023/01/22 00:06:24;;;;;;;49.83;28.77;;;;;;;-3.39;100.00;103185.00;5052359;28;20083;-79
2023/01/22 00:08:51;;;;;;;46.88;28.27;;;;;;;-3.37;100.00;103174.81;5052630;28;20025;-83
2023/01/22 00:11:17;;;;;;;49.22;29.73;;;;;;;-3.35;100.00;103171.63;5052388;28;20052;-80
2023/01/22 00:13:43;;;;;;;50.70;30.33;;;;;;;-3.28;100.00;103175.69;5052331;28;20171;-81
2023/01/22 00:16:12;;;;;;;49.85;30.73;;;;;;;-3.18;100.00;103181.00;5034745;28;20025;-77
2023/01/22 00:18:38;;;;;;;50.85;31.05;;;;;;;-3.06;100.00;103185.56;5052207;28;20036;-74
2023/01/22 00:21:03;;;;;;;50.15;30.08;;;;;;;-3.05;100.00;103177.94;5052218;28;20041;-82
2023/01/22 00:23:29;;;;;;;48.50;30.00;;;;;;;-2.96;100.00;103183.09;5052601;28;20029;-83
2023/01/22 00:26:10;;;;;;;48.90;29.85;;;;;;;-2.93;100.00;103177.31;5052248;28;20033;-82
2023/01/22 00:28:37;;;;;;;47.25;28.95;;;;;;;-2.89;100.00;103179.44;5049367;28;20067;-79
2023/01/22 00:31:04;;;;;;;50.35;30.95;;;;;;;-2.89;100.00;103182.03;5052439;28;20032;-79
2023/01/22 00:33:30;;;;;;;48.67;30.63;;;;;;;-2.89;100.00;103179.44;5052203;28;20063;-83
2023/01/22 00:35:56;;;;;;;47.53;29.30;;;;;;;-2.91;100.00;103175.75;5052216;28;20033;-84
2023/01/22 00:38:21;;;;;;;48.33;29.60;;;;;;;-2.95;100.00;103165.91;5052381;28;20116;-84
2023/01/22 00:40:47;;;;;;;48.33;30.25;;;;;;;-3.00;100.00;103165.44;5052137;28;20021;-82
2023/01/22 00:43:12;;;;;;;50.63;30.33;;;;;;;-3.06;100.00;103162.25;5052042;28;20116;-84
2023/01/22 00:45:38;;;;;;;48.03;30.45;;;;;;;-3.12;100.00;103161.69;5052462;28;20033;-83
2023/01/22 00:48:04;;;;;;;48.63;30.30;;;;;;;-3.24;100.00;103167.47;5052148;28;20385;-72
2023/01/22 00:50:29;;;;;;;47.20;29.77;;;;;;;-3.29;100.00;103165.22;5052098;28;20116;-72
2023/01/22 00:52:55;;;;;;;48.03;30.15;;;;;;;-3.35;100.00;103160.34;5052222;28;20032;-72
2023/01/22 00:55:20;;;;;;;48.65;31.30;;;;;;;-3.38;100.00;103165.22;5051998;28;20104;-72
2023/01/22 00:57:45;;;;;;;48.20;30.63;;;;;;;-3.38;100.00;103160.03;5051965;28;20029;-72
2023/01/22 01:00:13;;;;;;;49.80;31.25;;;;;;;-3.42;100.00;103157.91;5052377;28;20166;-72
2023/01/22 01:05:24;;;;;;;48.42;31.17;;;;;;;-3.45;100.00;103147.28;5056040;28;20044;-72
2023/01/22 01:07:49;;;;;;;48.95;31.13;;;;;;;-3.39;100.00;103148.81;5055781;28;20468;-71
2023/01/22 01:10:15;;;;;;;52.35;32.67;;;;;;;-3.40;100.00;103152.13;5055890;28;20044;-72
2023/01/22 01:12:40;;;;;;;50.20;31.58;;;;;;;-3.35;100.00;103145.75;5055595;28;20111;-72
2023/01/22 01:15:06;;;;;;;48.70;31.58;;;;;;;-3.36;100.00;103145.59;5055722;28;20128;-72
2023/01/22 01:17:33;;;;;;;51.88;33.00;;;;;;;-3.37;100.00;103143.78;5055817;28;20040;-72
2023/01/22 01:19:59;;;;;;;51.95;32.72;;;;;;;-3.45;100.00;103143.03;5051487;28;20137;-72
2023/01/22 01:22:24;;;;;;;49.83;31.70;;;;;;;-3.48;100.00;103140.16;5055679;28;20120;-72
2023/01/22 01:24:49;;;;;;;49.63;32.20;;;;;;;-3.48;100.00;103140.16;5037552;28;20071;-72
2023/01/22 01:27:15;;;;;;;50.53;32.15;;;;;;;-3.54;100.00;103140.47;5055595;28;20521;-72
2023/01/22 01:29:40;;;;;;;51.67;31.75;;;;;;;-3.59;100.00;103135.59;5055499;28;20492;-72
2023/01/22 01:32:05;;;;;;;51.45;32.33;;;;;;;-3.60;100.00;103139.84;5055189;28;20476;-72
2023/01/22 01:34:30;;;;;;;51.47;32.65;;;;;;;-3.63;100.00;103134.38;5055326;28;20491;-72
2023/01/22 01:36:56;;;;;;;50.00;31.15;;;;;;;-3.64;100.00;103134.22;5055331;28;20403;-72
2023/01/22 01:39:21;;;;;;;51.25;32.63;;;;;;;-3.65;100.00;103130.72;5055190;28;20365;-72
2023/01/22 01:41:47;;;;;;;49.78;31.48;;;;;;;-3.68;100.00;103125.25;5055073;28;20029;-72
2023/01/22 01:44:20;;;;;;;50.10;31.65;;;;;;;-3.74;100.00;103128.16;5055257;28;20029;-72
2023/01/22 01:46:53;;;;;;;51.47;32.60;;;;;;;-3.77;100.00;103111.41;5054797;28;20064;-72
2023/01/22 01:49:27;;;;;;;50.67;31.48;;;;;;;-3.76;100.00;103110.66;5054984;28;20108;-72
2023/01/22 01:51:58;;;;;;;50.53;32.00;;;;;;;-3.78;100.00;103101.84;5054873;28;20025;-72
2023/01/22 01:54:25;;;;;;;51.83;33.25;;;;;;;-3.85;100.00;103097.72;5055083;28;20021;-72
2023/01/22 01:56:59;;;;;;;48.75;31.70;;;;;;;-3.88;100.00;103095.75;5055033;28;20029;-72
2023/01/22 01:59:25;;;;;;;48.70;31.23;;;;;;;-3.88;100.00;103098.34;5055029;28;20067;-72
2023/01/22 02:01:54;;;;;;;47.63;30.50;;;;;;;-3.83;100.00;103101.38;5054735;28;20473;-72
2023/01/22 02:04:20;;;;;;;48.88;30.92;;;;;;;-3.86;100.00;103096.84;5054912;28;20033;-72
2023/01/22 02:06:46;;;;;;;48.90;31.40;;;;;;;-3.81;100.00;103091.22;5054572;28;20492;-73
2023/01/22 02:09:12;;;;;;;50.53;31.98;;;;;;;-3.79;100.00;103092.25;5054607;28;20057;-72
2023/01/22 02:11:39;;;;;;;49.00;31.25;;;;;;;-3.79;100.00;103089.69;5054739;28;20499;-72
2023/01/22 02:14:09;;;;;;;49.33;31.67;;;;;;;-3.78;100.00;103096.69;5054492;28;20029;-72
2023/01/22 02:16:34;;;;;;;50.13;30.73;;;;;;;-3.77;100.00;103093.31;5036009;28;20036;-72
2023/01/22 02:18:59;;;;;;;46.72;30.60;;;;;;;-3.74;100.00;103086.78;5054698;28;20029;-72
2023/01/22 02:21:38;;;;;;;46.65;30.13;;;;;;;-3.75;100.00;103079.78;5054225;28;20416;-72
2023/01/22 02:24:09;;;;;;;47.22;30.42;;;;;;;-3.71;100.00;103076.75;5051019;28;20029;-73
2023/01/22 02:26:36;;;;;;;47.47;30.17;;;;;;;-3.69;100.00;103079.47;5051185;28;20040;-72
2023/01/22 02:29:02;;;;;;;47.55;30.58;;;;;;;-3.76;100.00;103087.38;5054482;28;20107;-72
2023/01/22 02:31:28;;;;;;;46.75;30.08;;;;;;;-3.73;100.00;103082.50;5054151;28;20029;-72
2023/01/22 02:33:53;;;;;;;47.92;30.65;;;;;;;-3.69;100.00;103087.22;5054575;28;20029;-72
2023/01/22 02:36:20;;;;;;;45.08;29.17;;;;;;;-3.80;100.00;103093.00;5054151;28;20032;-72
2023/01/22 02:38:45;;;;;;;47.03;29.15;;;;;;;-3.76;100.00;103084.81;5053999;28;20072;-72
2023/01/22 02:41:11;;;;;;;45.40;29.45;;;;;;;-3.80;100.00;103082.66;5054266;28;20058;-73
2023/01/22 02:43:37;;;;;;;43.45;28.20;;;;;;;-3.77;100.00;103089.06;5036366;28;20041;-72
2023/01/22 02:46:02;;;;;;;43.50;28.10;;;;;;;-3.78;100.00;103092.41;5053916;28;20065;-73
2023/01/22 02:48:28;;;;;;;42.60;27.48;;;;;;;-3.74;100.00;103096.19;5054105;28;20472;-72
2023/01/22 02:50:53;;;;;;;44.17;27.90;;;;;;;-3.70;100.00;103087.97;5053778;28;20033;-73
2023/01/22 02:53:18;;;;;;;44.30;27.83;;;;;;;-3.72;100.00;103074.91;5053776;28;20388;-73
2023/01/22 02:55:45;;;;;;;44.15;27.92;;;;;;;-3.62;100.00;103081.91;5054258;28;20383;-72
2023/01/22 02:58:11;;;;;;;44.17;28.38;;;;;;;-3.42;100.00;103080.31;5036146;28;20028;-73
2023/01/22 03:00:37;;;;;;;44.47;29.35;;;;;;;-3.24;100.00;103088.97;5053678;28;20051;-72
2023/01/22 03:03:06;;;;;;;44.58;29.75;;;;;;;-3.04;100.00;103093.47;5053761;28;20472;-73
2023/01/22 03:05:35;;;;;;;45.83;29.65;;;;;;;-2.91;100.00;103100.69;5049781;28;20063;-73
2023/01/22 03:08:00;;;;;;;41.97;27.80;;;;;;;-2.81;100.00;103085.25;5049626;28;20044;-73
2023/01/22 03:10:26;;;;;;;43.47;28.85;;;;;;;-2.71;100.00;103082.81;5053649;28;20064;-72
2023/01/22 03:21:15;;;;;;;41.83;27.88;;;;;;;-2.55;100.00;103085.16;5050134;28;20195;-72
2023/01/22 03:23:45;;;;;;;41.03;27.58;;;;;;;-2.51;100.00;103081.16;5053204;28;20020;-73
2023/01/22 03:26:10;;;;;;;41.03;27.85;;;;;;;-2.47;100.00;103081.56;5053083;28;20025;-73
2023/01/22 03:28:36;;;;;;;40.25;27.60;;;;;;;-2.46;100.00;103075.63;5035428;28;20029;-72
2023/01/22 03:31:01;;;;;;;40.90;26.83;;;;;;;-2.46;100.00;103080.81;5053039;28;20056;-73
2023/01/22 03:33:27;;;;;;;41.03;27.23;;;;;;;-2.44;100.00;103078.34;5053289;28;20491;-73
2023/01/22 03:35:52;;;;;;;41.03;27.45;;;;;;;-2.45;100.00;103081.72;5052981;28;20028;-73
2023/01/22 03:38:18;;;;;;;39.92;26.98;;;;;;;-2.44;100.00;103072.28;5052893;28;20567;-73
2023/01/22 03:40:43;;;;;;;40.45;27.20;;;;;;;-2.44;100.00;103067.09;5053070;28;20028;-73
2023/01/22 03:43:09;;;;;;;40.40;27.30;;;;;;;-2.49;100.00;103062.41;5052898;28;20515;-73
2023/01/22 03:45:34;;;;;;;40.22;26.65;;;;;;;-2.49;100.00;103054.63;5052810;28;20036;-73
2023/01/22 03:48:01;;;;;;;39.67;26.42;;;;;;;-2.49;100.00;103056.28;5053108;28;20142;-73
2023/01/22 03:50:27;;;;;;;40.33;26.40;;;;;;;-2.54;100.00;103052.38;5052728;28;20029;-73
2023/01/22 03:52:52;;;;;;;39.47;26.77;;;;;;;-2.57;100.00;103049.50;5052631;28;20078;-72
2023/01/22 03:55:17;;;;;;;38.60;25.88;;;;;;;-2.63;100.00;103052.44;5052961;28;20036;-73
2023/01/22 03:57:43;;;;;;;39.60;26.35;;;;;;;-2.73;100.00;103055.84;5052693;28;20115;-73
2023/01/22 04:00:09;;;;;;;38.80;25.95;;;;;;;-2.85;100.00;103062.47;5052577;28;20537;-73
2023/01/22 04:02:34;;;;;;;38.88;25.95;;;;;;;-2.95;100.00;103060.69;5052783;28;20506;-73
2023/01/22 04:04:59;;;;;;;38.92;26.08;;;;;;;-3.03;100.00;103051.25;5048444;28;20476;-73
2023/01/22 04:07:25;;;;;;;39.85;27.17;;;;;;;-3.11;100.00;103057.41;5052575;28;20396;-73
2023/01/22 04:09:51;;;;;;;38.80;26.20;;;;;;;-3.22;100.00;103054.72;5052743;28;20052;-73
2023/01/22 04:12:17;;;;;;;41.85;27.42;;;;;;;-3.25;100.00;103054.38;5052356;28;20468;-72
2023/01/22 04:14:42;;;;;;;41.08;27.42;;;;;;;-3.29;100.00;103060.06;5052628;28;20037;-73
2023/01/22 04:17:07;;;;;;;41.08;28.23;;;;;;;-3.24;100.00;103060.50;5052433;28;20040;-72
2023/01/22 04:19:32;;;;;;;40.83;27.73;;;;;;;-3.16;100.00;103057.88;5052221;28;20051;-73
2023/01/22 04:21:58;;;;;;;41.58;28.42;;;;;;;-3.11;100.00;103052.22;5052535;28;20048;-73
2023/01/22 04:24:23;;;;;;;41.88;28.05;;;;;;;-3.05;100.00;103057.97;5052299;28;20112;-73
2023/01/22 04:26:49;;;;;;;42.90;28.40;;;;;;;-3.00;100.00;103057.66;5052141;28;20033;-73
2023/01/22 04:29:14;;;;;;;42.38;28.33;;;;;;;-2.87;100.00;103056.22;5052731;28;20456;-73
2023/01/22 04:31:39;;;;;;;43.00;29.20;;;;;;;-2.82;100.00;103044.63;5052129;28;20035;-73
2023/01/22 04:34:05;;;;;;;41.80;28.20;;;;;;;-2.75;100.00;103047.03;5052250;28;20119;-73
2023/01/22 04:36:30;;;;;;;41.38;27.05;;;;;;;-2.69;100.00;103050.19;5052502;28;20025;-73
2023/01/22 04:38:55;;;;;;;41.50;27.45;;;;;;;-2.65;100.00;103051.34;5054342;28;20037;-73
2023/01/22 04:41:21;;;;;;;41.10;26.00;;;;;;;-2.62;100.00;103049.09;5056416;28;20029;-73
2023/01/22 04:43:46;;;;;;;40.50;26.38;;;;;;;-2.59;100.00;103041.59;5056388;28;20430;-73
2023/01/22 04:46:11;;;;;;;40.67;26.17;;;;;;;-2.55;100.00;103046.28;5056087;28;20454;-73
2023/01/22 04:48:37;;;;;;;39.88;25.75;;;;;;;-2.46;100.00;103041.94;5056302;28;20032;-73
2023/01/22 04:51:02;;;;;;;36.83;23.98;;;;;;;-2.46;100.00;103047.13;5056074;28;20082;-73
2023/01/22 04:53:27;;;;;;;39.05;25.38;;;;;;;-2.42;100.00;103047.41;5056054;28;20029;-73
2023/01/22 04:55:53;;;;;;;37.90;24.50;;;;;;;-2.44;100.00;103038.59;5056263;28;20029;-73
2023/01/22 04:58:18;;;;;;;37.90;24.17;;;;;;;-2.43;100.00;103037.81;5055989;28;20060;-73
2023/01/22 05:00:44;;;;;;;35.67;22.88;;;;;;;-2.47;100.00;103047.00;5038050;28;20025;-73
2023/01/22 05:03:11;;;;;;;36.63;23.67;;;;;;;-2.48;100.00;103045.16;5056063;28;20032;-83
2023/01/22 05:05:37;;;;;;;35.72;23.23;;;;;;;-2.52;100.00;103046.56;5055834;28;20380;-82
2023/01/22 05:08:03;;;;;;;35.50;22.83;;;;;;;-2.46;100.00;103038.47;5055823;28;20103;-83
2023/01/22 05:10:28;;;;;;;35.05;22.58;;;;;;;-2.47;100.00;103047.91;5055914;28;20037;-83
2023/01/22 05:12:54;;;;;;;36.00;22.67;;;;;;;-2.43;100.00;103043.91;5055733;28;20060;-83
2023/01/22 05:15:19;;;;;;;35.72;22.92;;;;;;;-2.35;100.00;103042.91;5055671;28;20029;-84
2023/01/22 05:17:45;;;;;;;37.55;23.30;;;;;;;-2.36;100.00;103041.13;5055877;28;20021;-83
2023/01/22 05:20:10;;;;;;;34.08;21.85;;;;;;;-2.38;100.00;103041.75;5037511;28;20048;-83
2023/01/22 05:22:36;;;;;;;32.72;20.73;;;;;;;-2.32;100.00;103034.53;5055511;28;20037;-81
2023/01/22 05:25:01;;;;;;;33.97;21.92;;;;;;;-2.35;100.00;103053.28;5055750;28;20468;-81
2023/01/22 05:27:27;;;;;;;33.53;21.38;;;;;;;-2.34;100.00;103059.41;5055348;28;20112;-82
2023/01/22 05:29:52;;;;;;;34.17;21.13;;;;;;;-2.34;100.00;103060.31;5055619;28;20032;-83
2023/01/22 05:32:17;;;;;;;35.60;21.70;;;;;;;-2.35;100.00;103055.88;5055220;28;20021;-82
2023/01/22 05:34:43;;;;;;;34.05;21.30;;;;;;;-2.35;100.00;103054.97;5055338;28;20021;-83
2023/01/22 05:37:08;;;;;;;33.20;21.13;;;;;;;-2.35;100.00;103062.75;5055381;28;20379;-82
2023/01/22 05:39:33;;;;;;;33.58;21.77;;;;;;;-2.37;100.00;103057.44;5055308;28;20033;-83
2023/01/22 05:41:59;;;;;;;33.38;21.08;;;;;;;-2.39;100.00;103060.66;5055136;28;20028;-83
2023/01/22 05:44:25;;;;;;;32.88;21.63;;;;;;;-2.35;100.00;103063.66;5055339;28;20029;-83
2023/01/22 05:46:50;;;;;;;34.08;21.75;;;;;;;-2.34;100.00;103070.66;5054978;28;20071;-82
2023/01/22 05:49:16;;;;;;;32.63;20.88;;;;;;;-2.34;100.00;103067.19;5054290;28;20029;-79
2023/01/22 05:51:41;;;;;;;33.33;20.85;;;;;;;-2.32;100.00;103068.22;5054711;28;20468;-80
2023/01/22 05:54:07;;;;;;;35.50;21.83;;;;;;;-2.31;100.00;103070.03;5036990;28;20036;-83
2023/01/22 05:56:32;;;;;;;34.13;21.85;;;;;;;-2.29;100.00;103073.69;5054917;28;20477;-82
2023/01/22 05:58:57;;;;;;;34.45;21.25;;;;;;;-2.29;100.00;103076.25;5037197;28;20032;-79
2023/01/22 06:01:23;;;;;;;34.47;21.88;;;;;;;-2.30;100.00;103077.03;5054821;28;20036;-82
2023/01/22 06:03:49;;;;;;;33.45;21.13;;;;;;;-2.25;100.00;103085.25;5054935;28;20021;-82
2023/01/22 06:06:14;;;;;;;33.80;21.27;;;;;;;-2.26;100.00;103079.13;5054672;28;20037;-82
2023/01/22 06:08:40;;;;;;;32.72;21.38;;;;;;;-2.23;100.00;103083.69;5054662;28;20115;-83
2023/01/22 06:11:11;;;;;;;34.25;21.58;;;;;;;-2.25;100.00;103078.38;5054830;28;20061;-80
2023/01/22 06:13:36;;;;;;;34.33;21.42;;;;;;;-2.28;100.00;103071.22;5051456;28;20084;-79
2023/01/22 06:16:02;;;;;;;34.22;21.70;;;;;;;-2.22;100.00;103069.97;5054666;28;20025;-82
2023/01/22 06:18:27;;;;;;;33.85;21.55;;;;;;;-2.22;100.00;103072.56;5054660;28;20090;-83
2023/01/22 06:21:00;;;;;;;33.45;20.95;;;;;;;-2.22;100.00;103070.88;5054310;28;20051;-82
2023/01/22 06:23:27;;;;;;;33.75;21.50;;;;;;;-2.20;100.00;103084.91;5054383;28;20032;-73
2023/01/22 06:25:53;;;;;;;35.30;22.08;;;;;;;-2.20;100.00;103084.91;5054315;28;20396;-73
2023/01/22 06:28:20;;;;;;;34.17;21.92;;;;;;;-2.23;100.00;103076.81;5054488;28;20476;-73
2023/01/22 06:30:45;;;;;;;35.28;22.02;;;;;;;-2.19;100.00;103078.03;5036260;28;20415;-73
2023/01/22 06:33:11;;;;;;;35.13;22.63;;;;;;;-2.21;100.00;103082.16;5054229;28;20029;-73
2023/01/22 06:35:36;;;;;;;33.35;21.45;;;;;;;-2.21;100.00;103082.16;5054658;28;20049;-73
2023/01/22 06:38:02;;;;;;;34.67;22.25;;;;;;;-2.21;100.00;103070.13;5054189;28;20460;-73
2023/01/22 06:40:27;;;;;;;35.53;22.98;;;;;;;-2.18;100.00;103078.16;5054269;28;20025;-73
2023/01/22 06:42:52;;;;;;;36.83;22.55;;;;;;;-2.17;100.00;103069.63;5054040;28;20162;-73
2023/01/22 06:45:18;;;;;;;35.10;22.48;;;;;;;-2.14;100.00;103079.34;5053929;28;20079;-73
2023/01/22 06:47:44;;;;;;;35.45;21.85;;;;;;;-2.18;100.00;103079.88;5054187;28;20100;-73
2023/01/22 06:50:11;;;;;;;34.50;21.75;;;;;;;-2.13;100.00;103076.88;5036454;28;20044;-73
2023/01/22 06:52:36;;;;;;;35.38;22.17;;;;;;;-2.12;100.00;103085.59;5053941;28;20357;-73
2023/01/22 06:55:02;;;;;;;33.83;21.25;;;;;;;-2.14;100.00;103087.13;5054009;28;20099;-73
2023/01/22 06:57:27;;;;;;;34.78;21.88;;;;;;;-2.14;100.00;103090.66;5053749;28;20036;-73
2023/01/22 06:59:53;;;;;;;34.35;22.02;;;;;;;-2.10;100.00;103099.59;5035923;28;20527;-73
2023/01/22 07:02:18;;;;;;;33.53;21.10;;;;;;;-2.13;100.00;103092.44;5053501;28;20029;-73
2023/01/22 07:04:44;;;;;;;33.95;21.67;;;;;;;-2.10;100.00;103086.63;5053891;28;20035;-83
2023/01/22 07:07:10;;;;;;;34.05;21.77;;;;;;;-2.11;100.00;103085.75;5053423;28;20553;-83
2023/01/22 07:09:35;;;;;;;34.83;22.05;;;;;;;-2.08;100.00;103092.91;5053828;28;20060;-83
2023/01/22 07:12:00;;;;;;;33.80;21.75;;;;;;;-2.08;100.00;103089.38;5053444;28;20123;-83
2023/01/22 07:14:26;;;;;;;34.85;21.77;;;;;;;-2.07;100.00;103096.38;5053352;28;20099;-79
2023/01/22 07:16:52;;;;;;;34.88;22.23;;;;;;;-2.07;100.00;103091.19;5053626;28;20029;-83
2023/01/22 07:19:18;;;;;;;33.85;21.92;;;;;;;-2.05;100.00;103097.44;5053420;28;20045;-81
2023/01/22 07:21:44;;;;;;;34.33;21.63;;;;;;;-2.04;100.00;103091.47;5035571;28;20045;-82
2023/01/22 07:24:10;;;;;;;34.88;22.17;;;;;;;-2.03;100.00;103093.31;5053220;28;20396;-82
2023/01/22 07:26:35;;;;;;;35.50;21.63;;;;;;;-2.02;100.00;103093.44;5053232;28;20036;-81
2023/01/22 07:29:01;;;;;;;33.88;21.67;;;;;;;-2.01;100.00;103086.56;5053324;28;20111;-83
2023/01/22 07:31:27;;;;;;;33.05;21.40;;;;;;;-2.01;100.00;103091.75;5053023;28;20476;-83
2023/01/22 07:33:53;;;;;;;32.97;21.33;;;;;;;-2.00;100.00;103093.59;5053033;28;20057;-82
2023/01/22 07:36:18;;;;;;;34.33;21.90;;;;;;;-2.00;100.00;103097.06;5053247;28;20500;-82
2023/01/22 07:38:43;;;;;;;33.90;21.05;;;;;;;-1.97;100.00;103097.34;5052916;28;20027;-80
2023/01/22 07:41:09;;;;;;;35.47;21.75;;;;;;;-1.97;100.00;103093.84;5052968;28;20081;-83
2023/01/22 07:43:34;;;;;;;33.85;21.55;;;;;;;-1.95;100.00;103094.94;5053110;28;20036;-73
2023/01/22 07:46:01;;;;;;;33.40;20.85;;;;;;;-1.94;100.00;103096.72;5035054;28;20131;-73
2023/01/22 07:48:26;;;;;;;33.22;21.00;;;;;;;-1.93;100.00;103096.88;5052824;28;20103;-73
2023/01/22 07:50:52;;;;;;;33.40;20.75;;;;;;;-1.88;100.00;103093.78;5052884;28;20060;-73
2023/01/22 07:53:17;;;;;;;33.13;20.90;;;;;;;-1.88;100.00;103098.97;5052905;28;20388;-73
2023/01/22 07:55:43;;;;;;;32.92;20.27;;;;;;;-1.85;100.00;103105.38;5052654;28;20367;-74
2023/01/22 07:58:10;;;;;;;32.58;20.50;;;;;;;-1.84;100.00;103101.06;5052746;28;20495;-73
2023/01/22 08:00:35;;;;;;;31.75;19.58;;;;;;;-1.82;100.00;103104.69;5052479;28;20060;-73
2023/01/22 08:03:03;;;;;;;32.90;20.02;;;;;;;-1.82;100.00;103109.91;5052397;28;20021;-73
2023/01/22 08:05:28;;;;;;;31.75;19.83;;;;;;;-1.82;100.00;103105.63;5052666;28;20029;-73
2023/01/22 08:07:54;;;;;;;32.83;20.42;;;;;;;-1.81;100.00;103106.53;5052445;28;20404;-73
2023/01/22 08:10:19;;;;;;;31.10;18.95;;;;;;;-1.69;100.00;103111.91;5052640;28;20484;-73
2023/01/22 08:12:45;;;;;;;31.33;19.30;;;;;;;-1.72;100.00;103109.06;5052024;28;20060;-73
2023/01/22 08:15:11;;;;;;;31.10;19.35;;;;;;;-1.65;100.00;103103.66;5052508;28;20036;-73
2023/01/22 08:17:37;;;;;;;31.67;19.13;;;;;;;-1.55;100.00;103114.06;5052655;28;20028;-73
2023/01/22 08:20:04;;;;;;;31.38;19.00;;;;;;;-1.46;100.00;103119.19;5048139;28;20578;-73
2023/01/22 08:22:29;;;;;;;31.33;19.45;;;;;;;-1.38;100.00;103109.47;5052371;28;20037;-72
2023/01/22 08:24:54;;;;;;;34.22;24.65;;;;;;;-1.30;100.00;103113.66;5034688;28;20059;-73
2023/01/22 08:27:20;;;;;;;34.50;24.88;;;;;;;-1.23;100.00;103122.13;5052217;28;20120;-73
2023/01/22 08:29:46;;;;;;;32.85;22.55;;;;;;;-1.21;100.00;103122.25;5052270;28;20067;-73
2023/01/22 08:32:12;;;;;;;31.80;18.95;;;;;;;-1.19;100.00;103120.72;5052416;28;20030;-73
2023/01/22 08:34:37;;;;;;;28.98;18.73;;;;;;;-1.18;100.00;103130.34;5052284;28;20037;-73
2023/01/22 08:37:02;;;;;;;29.33;18.20;;;;;;;-1.17;100.00;103136.44;5052469;28;20055;-73
2023/01/22 08:39:28;;;;;;;30.38;18.63;;;;;;;-1.20;100.00;103137.06;5052368;28;20079;-73
2023/01/22 08:41:56;;;;;;;30.80;18.30;;;;;;;-1.18;100.00;103132.00;5051944;28;20119;-73
2023/01/22 08:44:22;;;;;;;30.40;19.65;;;;;;;-1.21;100.00;103135.25;5052070;28;20070;-73
2023/01/22 08:46:48;;;;;;;29.50;17.58;;;;;;;-1.21;100.00;103129.16;5052191;28;20029;-73
2023/01/22 08:49:13;;;;;;;29.33;17.65;;;;;;;-1.22;100.00;103128.25;5052042;28;20060;-73
2023/01/22 08:51:38;;;;;;;28.95;17.25;;;;;;;-1.24;100.00;103125.53;5017776;28;20056;-73
2023/01/22 08:54:04;;;;;;;28.45;16.98;;;;;;;-1.20;100.00;103133.56;5052246;28;20037;-73
2023/01/22 08:56:29;;;;;;;27.42;16.40;;;;;;;-1.16;100.00;103133.97;5052104;28;20065;-72
2023/01/22 08:58:58;;;;;;;27.48;16.00;;;;;;;-1.13;100.00;103134.25;5052044;28;20029;-72
2023/01/22 09:01:24;;;;;;;27.23;15.82;;;;;;;-1.11;100.00;103130.09;5051737;28;20371;-75
2023/01/22 09:03:49;;;;;;;28.75;16.67;;;;;;;-1.11;100.00;103132.69;5045165;28;20025;-86
2023/01/22 09:06:15;;;;;;;27.98;15.98;;;;;;;-1.10;100.00;103124.13;5047545;28;20037;-76
2023/01/22 09:08:40;;;;;;;28.13;15.85;;;;;;;-1.14;100.00;103121.13;5032897;28;20067;-79
2023/01/22 09:11:06;;;;;;;27.52;15.63;;;;;;;-1.17;100.00;103126.06;5050765;28;20488;-79
2023/01/22 09:13:31;;;;;;;26.48;15.05;;;;;;;-1.17;100.00;103126.94;5051385;28;20472;-83
2023/01/22 09:15:57;;;;;;;27.73;15.60;;;;;;;-1.16;100.00;103135.69;5050488;28;20419;-78
2023/01/22 09:18:23;;;;;;;27.98;16.45;;;;;;;-1.20;100.00;103129.28;5051173;28;20025;-78
2023/01/22 09:20:48;;;;;;;29.15;17.02;;;;;;;-1.15;100.00;103132.28;5051835;28;20369;-80
2023/01/22 09:23:14;;;;;;;28.05;16.63;;;;;;;-1.14;100.00;103134.13;5053294;28;20480;-76
2023/01/22 09:25:40;;;;;;;28.42;16.40;;;;;;;-1.11;100.00;103136.97;5053584;28;20497;-80
2023/01/22 09:28:07;;;;;;;27.63;16.48;;;;;;;-1.10;100.00;103139.72;5061723;28;20064;-84
2023/01/22 09:30:34;;;;;;;28.10;17.02;;;;;;;-1.00;100.00;103132.75;5054535;28;20078;-85
2023/01/22 09:33:01;;;;;;;28.15;16.30;;;;;;;-0.92;100.00;103140.44;5054737;28;20025;-75
2023/01/22 09:35:27;;;;;;;28.80;17.20;;;;;;;-0.86;100.00;103137.44;5053844;28;20391;-74
2023/01/22 09:37:53;;;;;;;27.77;15.82;;;;;;;-0.66;100.00;103133.09;5063139;28;20028;-74
2023/01/22 09:40:44;;;;;;;27.38;15.82;;;;;;;-0.49;100.00;103131.94;5036857;28;20119;-73
2023/01/22 09:43:23;;;;;;;27.88;16.17;;;;;;;-0.46;100.00;103137.41;5044869;28;20033;-75
2023/01/22 09:45:54;;;;;;;26.83;15.80;;;;;;;-0.50;100.00;103149.22;5055544;28;20036;-74
2023/01/22 09:48:20;;;;;;;27.98;15.55;;;;;;;-0.43;100.00;103150.66;5057540;28;20361;-74
2023/01/22 09:50:47;;;;;;;26.50;15.95;;;;;;;-0.46;100.00;103148.69;5036464;28;20124;-75
2023/01/22 09:53:16;;;;;;;27.15;15.45;;;;;;;-0.52;100.00;103148.19;5054050;28;20025;-74
2023/01/22 09:55:47;;;;;;;27.92;16.05;;;;;;;-0.60;100.00;103152.69;5053894;28;20388;-73
2023/01/22 09:58:16;;;;;;;26.40;15.05;;;;;;;-0.70;100.00;103150.06;5055528;28;20029;-74
2023/01/22 10:00:54;;;;;;;29.02;15.63;;;;;;;-0.73;100.00;103144.63;5053745;28;20074;-75
2023/01/22 10:03:31;;;;;;;27.13;15.30;;;;;;;-0.75;100.00;103143.59;5057074;28;20469;-74
2023/01/22 10:06:05;;;;;;;26.50;15.48;;;;;;;-0.75;100.00;103143.59;5053725;28;20091;-74
2023/01/22 10:08:36;;;;;;;27.63;15.43;;;;;;;-0.74;100.00;103140.22;5054221;28;20025;-74
2023/01/22 10:11:03;;;;;;;26.67;15.43;;;;;;;-0.67;100.00;103146.84;5057936;28;20029;-74
2023/01/22 10:13:32;;;;;;;26.98;15.30;;;;;;;-0.67;100.00;103157.22;5053934;28;20032;-75
2023/01/22 10:15:58;;;;;;;26.95;16.20;;;;;;;-0.71;100.00;103153.47;5056494;28;20036;-74
2023/01/22 10:18:36;;;;;;;27.52;17.23;;;;;;;-0.65;100.00;103158.28;5059701;28;20029;-75
2023/01/22 10:21:18;;;;;;;57.97;51.90;;;;;;;-0.65;100.00;103161.78;5053808;28;20044;-75
2023/01/22 10:23:43;;;;;;;32.90;23.70;;;;;;;-0.61;100.00;103158.69;5052736;28;20029;-74
2023/01/22 10:26:36;;;;;;;28.98;17.98;;;;;;;-0.62;100.00;103164.66;5056866;28;20037;-74
2023/01/22 10:29:08;;;;;;;29.20;19.88;;;;;;;-0.68;100.00;103158.00;5046391;28;20036;-74
2023/01/22 10:31:39;;;;;;;28.02;17.83;;;;;;;-0.72;100.00;103149.03;5053852;28;20035;-74
2023/01/22 10:34:20;;;;;;;51.63;46.75;;;;;;;-0.73;100.00;103150.75;5050542;28;20069;-74
2023/01/22 10:36:51;;;;;;;41.90;37.40;;;;;;;-0.71;100.00;103141.38;5050782;28;20147;-73
2023/01/22 10:39:16;;;;;;;67.63;61.38;;;;;;;-0.67;100.00;103144.25;5054553;28;20029;-74
2023/01/22 10:41:44;;;;;;;52.30;47.00;;;;;;;-0.63;100.00;103141.13;5053957;28;20090;-74
2023/01/22 10:44:15;;;;;;;31.10;22.30;;;;;;;-0.63;100.00;103149.81;5053179;28;20029;-74
2023/01/22 10:46:41;;;;;;;28.45;18.02;;;;;;;-0.64;100.00;103147.09;5049598;28;20031;-74
2023/01/22 10:49:23;;;;;;;26.63;15.65;;;;;;;-0.64;100.00;103147.09;5052666;28;20025;-74
2023/01/22 10:51:57;;;;;;;26.43;15.50;;;;;;;-0.64;100.00;103163.63;5055271;28;20028;-74
2023/01/22 10:54:30;;;;;;;26.63;15.55;;;;;;;-0.65;100.00;103159.19;5054881;28;20370;-74
2023/01/22 10:57:19;;;;;;;26.63;15.57;;;;;;;-0.64;100.00;103160.09;5053266;28;20119;-74
2023/01/22 10:59:51;;;;;;;26.77;16.00;;;;;;;-0.65;100.00;103167.00;5050287;28;20103;-75
2023/01/22 11:02:22;;;;;;;28.17;18.02;;;;;;;-0.66;100.00;103164.25;5034926;28;20075;-75
2023/01/22 11:04:47;;;;;;;26.38;15.93;;;;;;;-0.64;100.00;103157.50;5055858;28;20031;-79
2023/01/22 11:07:29;;;;;;;27.13;15.80;;;;;;;-0.63;100.00;103154.13;5056801;28;20036;-75
2023/01/22 11:10:24;;;;;;;27.23;16.60;;;;;;;-0.59;100.00;103144.13;5053874;28;20027;-75
2023/01/22 11:12:56;;;;;;;27.98;16.75;;;;;;;-0.52;100.00;103127.38;5051567;28;20469;-75